createdAt,value
2018-11-12T00:00:00.047Z,0
2018-11-12T00:01:01.483Z,0
2018-11-12T00:02:02.902Z,0
2018-11-12T00:03:04.286Z,0
2018-11-12T00:04:05.672Z,0
2018-11-12T00:05:07.062Z,0
2018-11-12T00:06:08.444Z,0
2018-11-12T00:07:09.826Z,0
2018-11-12T00:08:11.210Z,0
2018-11-12T00:09:12.598Z,0
2018-11-12T00:10:13.985Z,0
2018-11-12T00:11:15.374Z,0
2018-11-12T00:12:16.759Z,0
2018-11-12T00:13:18.140Z,0
2018-11-12T00:14:19.524Z,0
2018-11-12T00:15:20.908Z,0
2018-11-12T00:16:22.294Z,0
2018-11-12T00:17:23.685Z,0
2018-11-12T00:18:25.069Z,0
2018-11-12T00:19:26.456Z,0
2018-11-12T00:20:27.841Z,0
2018-11-12T00:21:29.225Z,0
2018-11-12T00:22:30.612Z,0
2018-11-12T00:23:31.998Z,0
2018-11-12T00:24:33.389Z,0
2018-11-12T00:25:34.779Z,0
2018-11-12T00:26:36.167Z,0
2018-11-12T00:27:37.566Z,0
2018-11-12T00:28:38.952Z,0
2018-11-12T00:29:40.336Z,0
2018-11-12T00:30:41.720Z,0
2018-11-12T00:31:43.106Z,0
2018-11-12T00:32:44.491Z,0
2018-11-12T00:33:45.883Z,0
2018-11-12T00:34:47.276Z,0
2018-11-12T00:35:48.659Z,0
2018-11-12T00:36:50.053Z,0
2018-11-12T00:37:51.432Z,0
2018-11-12T00:38:52.820Z,0
2018-11-12T00:39:54.209Z,0
2018-11-12T00:40:55.597Z,0
2018-11-12T00:41:56.981Z,0
2018-11-12T00:42:58.368Z,0
2018-11-12T00:43:59.754Z,0
2018-11-12T00:45:01.168Z,0
2018-11-12T00:46:02.560Z,0
2018-11-12T00:47:03.939Z,0
2018-11-12T00:48:05.331Z,0
2018-11-12T00:49:06.715Z,0
2018-11-12T00:50:08.099Z,0
2018-11-12T00:51:09.500Z,0
2018-11-12T00:52:11.012Z,0
2018-11-12T00:53:12.404Z,0
2018-11-12T00:54:13.793Z,0
2018-11-12T00:55:15.183Z,0
2018-11-12T00:56:16.564Z,0
2018-11-12T00:57:17.953Z,0
2018-11-12T00:58:19.338Z,0
2018-11-12T00:59:20.725Z,0
2018-11-12T01:00:22.113Z,0
2018-11-12T01:01:23.497Z,0
2018-11-12T01:02:25.270Z,0
2018-11-12T01:03:26.835Z,0
2018-11-12T01:04:28.210Z,0
2018-11-12T01:05:29.599Z,0
2018-11-12T01:06:30.987Z,0
2018-11-12T01:07:32.375Z,0
2018-11-12T01:08:33.766Z,0
2018-11-12T01:09:35.155Z,0
2018-11-12T01:10:36.546Z,0
2018-11-12T01:11:37.932Z,0
2018-11-12T01:12:39.345Z,0
2018-11-12T01:13:40.736Z,0
2018-11-12T01:14:42.127Z,0
2018-11-12T01:15:43.517Z,0
2018-11-12T01:16:44.904Z,0
2018-11-12T01:17:46.295Z,0
2018-11-12T01:18:47.683Z,0
2018-11-12T01:19:49.079Z,0
2018-11-12T01:20:50.463Z,0
2018-11-12T01:21:51.856Z,0
2018-11-12T01:22:53.239Z,0
2018-11-12T01:23:54.630Z,0
2018-11-12T01:24:56.016Z,0
2018-11-12T01:25:57.404Z,0
2018-11-12T01:26:58.790Z,0
2018-11-12T01:28:00.180Z,0
2018-11-12T01:29:01.585Z,0
2018-11-12T01:30:02.976Z,0
2018-11-12T01:31:04.365Z,0
2018-11-12T01:32:05.750Z,0
2018-11-12T01:33:07.140Z,0
2018-11-12T01:34:08.525Z,0
2018-11-12T01:35:09.920Z,0
2018-11-12T01:36:11.313Z,0
2018-11-12T01:37:12.708Z,0
2018-11-12T01:38:14.096Z,0
2018-11-12T01:39:15.480Z,0
2018-11-12T01:40:16.865Z,0
2018-11-12T01:41:18.252Z,0
2018-11-12T01:42:19.642Z,0
2018-11-12T01:43:21.147Z,0
2018-11-12T01:44:22.540Z,0
2018-11-12T01:45:23.930Z,0
2018-11-12T01:46:25.314Z,0
2018-11-12T01:47:26.698Z,0
2018-11-12T01:48:28.084Z,0
2018-11-12T01:49:29.476Z,0
2018-11-12T01:50:30.859Z,0
2018-11-12T01:51:32.246Z,0
2018-11-12T01:52:33.639Z,0
2018-11-12T01:53:35.022Z,0
2018-11-12T01:54:36.410Z,0
2018-11-12T01:55:37.797Z,0
2018-11-12T01:56:39.183Z,0
2018-11-12T01:57:40.577Z,0
2018-11-12T01:58:41.962Z,0
2018-11-12T01:59:43.350Z,0
2018-11-12T02:00:44.742Z,0
2018-11-12T02:01:46.159Z,0
2018-11-12T02:02:47.503Z,0
2018-11-12T02:03:48.891Z,0
2018-11-12T02:04:50.309Z,0
2018-11-12T02:05:51.667Z,0
2018-11-12T02:06:53.056Z,0
2018-11-12T02:07:54.443Z,0
2018-11-12T02:08:55.890Z,0
2018-11-12T02:09:57.213Z,0
2018-11-12T02:10:58.660Z,0
2018-11-12T02:12:00.046Z,0
2018-11-12T02:13:01.435Z,0
2018-11-12T02:14:02.827Z,0
2018-11-12T02:15:04.218Z,0
2018-11-12T02:16:05.601Z,0
2018-11-12T02:17:06.988Z,0
2018-11-12T02:18:08.373Z,0
2018-11-12T02:19:09.764Z,0
2018-11-12T02:20:11.149Z,0
2018-11-12T02:21:12.536Z,0
2018-11-12T02:22:13.922Z,0
2018-11-12T02:23:15.309Z,0
2018-11-12T02:24:16.698Z,0
2018-11-12T02:25:18.082Z,0
2018-11-12T02:26:19.471Z,0
2018-11-12T02:27:20.862Z,0
2018-11-12T02:28:22.258Z,0
2018-11-12T02:29:23.628Z,0
2018-11-12T02:30:25.015Z,0
2018-11-12T02:31:26.413Z,0
2018-11-12T02:32:27.788Z,0
2018-11-12T02:33:29.176Z,0
2018-11-12T02:34:30.681Z,0
2018-11-12T02:35:32.104Z,0
2018-11-12T02:36:33.488Z,0
2018-11-12T02:37:34.871Z,0
2018-11-12T02:38:36.257Z,0
2018-11-12T02:39:37.649Z,0
2018-11-12T02:40:39.041Z,0
2018-11-12T02:41:40.425Z,0
2018-11-12T02:42:41.817Z,0
2018-11-12T02:43:43.201Z,0
2018-11-12T02:44:44.588Z,0
2018-11-12T02:45:45.979Z,0
2018-11-12T02:46:47.359Z,0
2018-11-12T02:47:48.751Z,0
2018-11-12T02:48:50.139Z,0
2018-11-12T02:49:51.530Z,0
2018-11-12T02:50:52.914Z,0
2018-11-12T02:51:54.301Z,0
2018-11-12T02:52:55.686Z,0
2018-11-12T02:53:57.072Z,0
2018-11-12T02:54:58.472Z,0
2018-11-12T02:55:59.860Z,0
2018-11-12T02:57:01.262Z,0
2018-11-12T02:58:02.649Z,0
2018-11-12T02:59:04.034Z,0
2018-11-12T03:00:05.421Z,0
2018-11-12T03:01:06.801Z,0
2018-11-12T03:02:08.187Z,0
2018-11-12T03:03:09.573Z,0
2018-11-12T03:04:10.962Z,0
2018-11-12T03:05:12.350Z,0
2018-11-12T03:06:13.738Z,0
2018-11-12T03:07:15.146Z,0
2018-11-12T03:08:16.513Z,0
2018-11-12T03:09:17.900Z,0
2018-11-12T03:10:19.285Z,0
2018-11-12T03:11:20.678Z,0
2018-11-12T03:12:22.064Z,0
2018-11-12T03:13:23.451Z,0
2018-11-12T03:14:24.840Z,0
2018-11-12T03:15:26.225Z,0
2018-11-12T03:16:27.613Z,0
2018-11-12T03:17:29.005Z,0
2018-11-12T03:18:30.389Z,0
2018-11-12T03:19:31.780Z,0
2018-11-12T03:20:33.165Z,0
2018-11-12T03:21:34.551Z,0
2018-11-12T03:22:35.939Z,0
2018-11-12T03:23:37.324Z,0
2018-11-12T03:24:38.715Z,0
2018-11-12T03:25:40.129Z,0
2018-11-12T03:26:41.673Z,0
2018-11-12T03:27:43.118Z,0
2018-11-12T03:28:44.459Z,0
2018-11-12T03:29:45.842Z,0
2018-11-12T03:30:47.227Z,0
2018-11-12T03:31:48.619Z,0
2018-11-12T03:32:50.008Z,0
2018-11-12T03:33:51.390Z,0
2018-11-12T03:34:52.775Z,0
2018-11-12T03:35:54.161Z,0
2018-11-12T03:36:55.546Z,0
2018-11-12T03:37:56.933Z,0
2018-11-12T03:38:58.318Z,0
2018-11-12T03:39:59.710Z,0
2018-11-12T03:41:01.089Z,0
2018-11-12T03:42:02.475Z,0
2018-11-12T03:43:03.864Z,0
2018-11-12T03:44:05.250Z,0
2018-11-12T03:45:06.639Z,0
2018-11-12T03:46:08.026Z,0
2018-11-12T03:47:09.421Z,0
2018-11-12T03:48:10.805Z,0
2018-11-12T03:49:12.187Z,0
2018-11-12T03:50:13.576Z,0
2018-11-12T03:51:14.964Z,0
2018-11-12T03:52:16.355Z,0
2018-11-12T03:53:17.735Z,0
2018-11-12T03:54:19.123Z,0
2018-11-12T03:55:20.513Z,0
2018-11-12T03:56:21.892Z,0
2018-11-12T03:57:23.279Z,0
2018-11-12T03:58:24.666Z,0
2018-11-12T03:59:26.053Z,0
2018-11-12T04:00:27.550Z,0
2018-11-12T04:01:28.835Z,0
2018-11-12T04:02:30.218Z,0
2018-11-12T04:03:31.601Z,0
2018-11-12T04:04:32.989Z,0
2018-11-12T04:05:34.378Z,0
2018-11-12T04:06:35.766Z,0
2018-11-12T04:07:37.153Z,0
2018-11-12T04:08:38.543Z,0
2018-11-12T04:09:39.928Z,0
2018-11-12T04:10:41.314Z,0
2018-11-12T04:11:42.699Z,0
2018-11-12T04:12:44.939Z,0
2018-11-12T04:13:46.676Z,0
2018-11-12T04:14:48.056Z,0
2018-11-12T04:15:49.504Z,0
2018-11-12T04:16:50.932Z,0
2018-11-12T04:17:52.326Z,0
2018-11-12T04:18:53.706Z,0
2018-11-12T04:19:55.091Z,0
2018-11-12T04:20:56.479Z,0
2018-11-12T04:21:57.915Z,0
2018-11-12T04:22:59.359Z,0
2018-11-12T04:24:00.751Z,0
2018-11-12T04:25:02.139Z,0
2018-11-12T04:26:03.526Z,0
2018-11-12T04:27:04.915Z,0
2018-11-12T04:28:06.300Z,0
2018-11-12T04:29:07.690Z,0
2018-11-12T04:30:09.076Z,0
2018-11-12T04:31:10.461Z,0
2018-11-12T04:32:11.847Z,0
2018-11-12T04:33:13.235Z,0
2018-11-12T04:34:14.624Z,0
2018-11-12T04:35:16.011Z,0
2018-11-12T04:36:17.397Z,0
2018-11-12T04:37:18.788Z,0
2018-11-12T04:38:20.170Z,0
2018-11-12T04:39:21.552Z,0
2018-11-12T04:40:22.944Z,0
2018-11-12T04:41:24.326Z,0
2018-11-12T04:42:25.714Z,0
2018-11-12T04:43:27.103Z,0
2018-11-12T04:44:28.488Z,0
2018-11-12T04:45:29.915Z,0
2018-11-12T04:46:31.261Z,0
2018-11-12T04:47:32.651Z,0
2018-11-12T04:48:34.035Z,0
2018-11-12T04:49:35.426Z,0
2018-11-12T04:50:36.810Z,0
2018-11-12T04:51:38.202Z,0
2018-11-12T04:52:39.585Z,0
2018-11-12T04:53:40.986Z,0
2018-11-12T04:54:42.360Z,0
2018-11-12T04:55:43.738Z,0
2018-11-12T04:56:45.128Z,0
2018-11-12T04:57:46.516Z,0
2018-11-12T04:58:47.905Z,0
2018-11-12T04:59:49.290Z,0
2018-11-12T05:00:50.718Z,0
2018-11-12T05:01:52.133Z,0
2018-11-12T05:02:53.497Z,0
2018-11-12T05:03:54.884Z,0
2018-11-12T05:04:56.261Z,0
2018-11-12T05:05:57.653Z,0
2018-11-12T05:06:59.042Z,0
2018-11-12T05:08:00.609Z,0
2018-11-12T05:09:02.025Z,0
2018-11-12T05:10:03.404Z,0
2018-11-12T05:11:04.792Z,0
2018-11-12T05:12:06.181Z,0
2018-11-12T05:13:07.571Z,0
2018-11-12T05:14:08.955Z,0
2018-11-12T05:15:10.343Z,0
2018-11-12T05:16:11.728Z,0
2018-11-12T05:17:13.117Z,0
2018-11-12T05:18:14.506Z,0
2018-11-12T05:19:15.890Z,0
2018-11-12T05:20:17.278Z,0
2018-11-12T05:21:18.661Z,0
2018-11-12T05:22:20.046Z,0
2018-11-12T05:23:21.433Z,0
2018-11-12T05:24:22.821Z,0
2018-11-12T05:25:24.206Z,0
2018-11-12T05:26:25.593Z,0
2018-11-12T05:27:27.014Z,0
2018-11-12T05:28:28.399Z,0
2018-11-12T05:29:29.786Z,0
2018-11-12T05:30:31.174Z,0
2018-11-12T05:31:32.561Z,0
2018-11-12T05:32:33.952Z,0
2018-11-12T05:33:35.345Z,0
2018-11-12T05:34:36.738Z,0
2018-11-12T05:35:38.123Z,0
2018-11-12T05:36:39.502Z,0
2018-11-12T05:37:40.940Z,0
2018-11-12T05:38:42.275Z,0
2018-11-12T05:39:43.662Z,0
2018-11-12T05:40:45.047Z,0
2018-11-12T05:41:46.441Z,0
2018-11-12T05:42:47.829Z,0
2018-11-12T05:43:49.210Z,0
2018-11-12T05:44:50.618Z,0
2018-11-12T05:45:51.983Z,0
2018-11-12T05:46:53.371Z,0
2018-11-12T05:47:54.756Z,0
2018-11-12T05:48:56.146Z,0
2018-11-12T05:49:57.532Z,0
2018-11-12T05:50:58.916Z,0
2018-11-12T05:52:00.301Z,0
2018-11-12T05:53:01.708Z,0
2018-11-12T05:54:03.160Z,0
2018-11-12T05:55:04.528Z,0
2018-11-12T05:56:05.928Z,0
2018-11-12T05:57:07.306Z,0
2018-11-12T05:58:08.691Z,0
2018-11-12T05:59:10.211Z,0
2018-11-12T06:00:11.594Z,0
2018-11-12T06:01:12.981Z,0
2018-11-12T06:02:14.365Z,0
2018-11-12T06:03:15.751Z,0
2018-11-12T06:04:17.140Z,0
2018-11-12T06:05:18.522Z,0
2018-11-12T06:06:19.911Z,0
2018-11-12T06:07:21.297Z,0
2018-11-12T06:08:22.686Z,0
2018-11-12T06:09:24.073Z,0
2018-11-12T06:10:25.461Z,0
2018-11-12T06:11:26.850Z,0
2018-11-12T06:12:28.237Z,0
2018-11-12T06:13:29.635Z,0
2018-11-12T06:14:31.028Z,0
2018-11-12T06:15:32.413Z,0
2018-11-12T06:16:33.798Z,0
2018-11-12T06:17:35.185Z,0
2018-11-12T06:18:36.570Z,0
2018-11-12T06:19:37.957Z,0
2018-11-12T06:20:39.346Z,0
2018-11-12T06:21:40.732Z,0
2018-11-12T06:22:42.173Z,0
2018-11-12T06:23:43.508Z,0
2018-11-12T06:24:44.896Z,4
2018-11-12T06:25:46.285Z,0
2018-11-12T06:26:47.668Z,0
2018-11-12T06:27:49.055Z,0
2018-11-12T06:28:50.441Z,0
2018-11-12T06:29:51.833Z,0
2018-11-12T06:30:53.222Z,4
2018-11-12T06:31:54.611Z,4
2018-11-12T06:32:55.999Z,4
2018-11-12T06:33:57.385Z,4
2018-11-12T06:34:58.767Z,4
2018-11-12T06:36:00.151Z,8
2018-11-12T06:37:01.544Z,8
2018-11-12T06:38:02.928Z,8
2018-11-12T06:39:04.319Z,12
2018-11-12T06:40:05.717Z,20
2018-11-12T06:41:07.096Z,20
2018-11-12T06:42:08.485Z,20
2018-11-12T06:43:09.938Z,20
2018-11-12T06:44:11.262Z,20
2018-11-12T06:45:12.682Z,20
2018-11-12T06:46:14.060Z,24
2018-11-12T06:47:15.450Z,28
2018-11-12T06:48:16.837Z,36
2018-11-12T06:49:18.228Z,44
2018-11-12T06:50:19.609Z,56
2018-11-12T06:51:21.752Z,64
2018-11-12T06:52:23.142Z,80
2018-11-12T06:53:24.595Z,92
2018-11-12T06:54:25.925Z,108
2018-11-12T06:55:27.315Z,112
2018-11-12T06:56:28.701Z,108
2018-11-12T06:57:30.089Z,108
2018-11-12T06:58:31.477Z,124
2018-11-12T06:59:32.866Z,132
2018-11-12T07:00:34.255Z,136
2018-11-12T07:01:35.644Z,124
2018-11-12T07:02:37.029Z,96
2018-11-12T07:03:38.422Z,84
2018-11-12T07:04:39.813Z,88
2018-11-12T07:05:41.202Z,116
2018-11-12T07:06:42.594Z,172
2018-11-12T07:07:43.980Z,180
2018-11-12T07:08:45.369Z,156
2018-11-12T07:09:46.756Z,136
2018-11-12T07:10:48.147Z,144
2018-11-12T07:11:49.538Z,188
2018-11-12T07:12:50.926Z,256
2018-11-12T07:13:52.337Z,304
2018-11-12T07:14:53.730Z,320
2018-11-12T07:15:55.121Z,308
2018-11-12T07:16:56.511Z,268
2018-11-12T07:17:57.903Z,268
2018-11-12T07:18:59.298Z,304
2018-11-12T07:20:00.682Z,296
2018-11-12T07:21:02.090Z,280
2018-11-12T07:22:03.464Z,252
2018-11-12T07:23:04.858Z,252
2018-11-12T07:24:06.246Z,284
2018-11-12T07:25:07.652Z,340
2018-11-12T07:26:09.025Z,408
2018-11-12T07:27:10.415Z,468
2018-11-12T07:28:11.809Z,468
2018-11-12T07:29:13.201Z,448
2018-11-12T07:30:14.587Z,456
2018-11-12T07:31:16.034Z,456
2018-11-12T07:32:17.377Z,376
2018-11-12T07:33:18.767Z,304
2018-11-12T07:34:20.161Z,316
2018-11-12T07:35:21.549Z,400
2018-11-12T07:36:22.940Z,496
2018-11-12T07:37:24.330Z,536
2018-11-12T07:38:25.718Z,512
2018-11-12T07:39:27.108Z,496
2018-11-12T07:40:28.499Z,528
2018-11-12T07:41:29.936Z,644
2018-11-12T07:42:31.364Z,732
2018-11-12T07:43:32.757Z,760
2018-11-12T07:44:34.144Z,736
2018-11-12T07:45:35.535Z,656
2018-11-12T07:46:36.925Z,628
2018-11-12T07:47:38.313Z,644
2018-11-12T07:48:39.749Z,596
2018-11-12T07:49:41.093Z,552
2018-11-12T07:50:42.485Z,556
2018-11-12T07:51:43.878Z,548
2018-11-12T07:52:45.267Z,576
2018-11-12T07:53:46.651Z,600
2018-11-12T07:54:48.038Z,628
2018-11-12T07:55:49.432Z,672
2018-11-12T07:56:50.822Z,676
2018-11-12T07:57:52.212Z,716
2018-11-12T07:58:53.600Z,800
2018-11-12T07:59:54.990Z,812
2018-11-12T08:00:56.379Z,764
2018-11-12T08:01:57.769Z,748
2018-11-12T08:02:59.198Z,796
2018-11-12T08:04:00.551Z,780
2018-11-12T08:05:01.944Z,812
2018-11-12T08:06:03.336Z,876
2018-11-12T08:07:04.721Z,908
2018-11-12T08:08:06.111Z,932
2018-11-12T08:09:07.560Z,996
2018-11-12T08:10:08.897Z,1080
2018-11-12T08:11:10.290Z,1112
2018-11-12T08:12:11.683Z,1120
2018-11-12T08:13:13.077Z,1084
2018-11-12T08:14:14.476Z,1060
2018-11-12T08:15:15.866Z,1096
2018-11-12T08:16:17.254Z,1068
2018-11-12T08:17:18.654Z,1024
2018-11-12T08:18:20.037Z,956
2018-11-12T08:19:21.428Z,840
2018-11-12T08:20:22.815Z,884
2018-11-12T08:21:24.204Z,888
2018-11-12T08:22:25.592Z,908
2018-11-12T08:23:26.981Z,816
2018-11-12T08:24:28.413Z,892
2018-11-12T08:25:29.765Z,1108
2018-11-12T08:26:31.159Z,1680
2018-11-12T08:27:32.613Z,2024
2018-11-12T08:28:33.944Z,2488
2018-11-12T08:29:35.380Z,2300
2018-11-12T08:30:36.731Z,2452
2018-11-12T08:31:38.125Z,2256
2018-11-12T08:32:39.575Z,2388
2018-11-12T08:33:40.971Z,2296
2018-11-12T08:34:42.404Z,2560
2018-11-12T08:35:43.793Z,2380
2018-11-12T08:36:45.187Z,2332
2018-11-12T08:37:46.578Z,2268
2018-11-12T08:38:47.974Z,2068
2018-11-12T08:39:49.496Z,2072
2018-11-12T08:40:50.915Z,2052
2018-11-12T08:41:52.149Z,2192
2018-11-12T08:42:53.541Z,2232
2018-11-12T08:43:54.933Z,2140
2018-11-12T08:44:56.325Z,1920
2018-11-12T08:45:57.758Z,1804
2018-11-12T08:46:59.111Z,1972
2018-11-12T08:48:00.507Z,1912
2018-11-12T08:49:01.964Z,2292
2018-11-12T08:50:03.315Z,2140
2018-11-12T08:51:04.686Z,1920
2018-11-12T08:52:06.096Z,1420
2018-11-12T08:53:07.468Z,1384
2018-11-12T08:54:08.863Z,1412
2018-11-12T08:55:10.325Z,1532
2018-11-12T08:56:11.651Z,1744
2018-11-12T08:57:13.040Z,2132
2018-11-12T08:58:15.128Z,2032
2018-11-12T08:59:15.910Z,1900
2018-11-12T09:00:17.220Z,2376
2018-11-12T09:01:18.612Z,2204
2018-11-12T09:02:20.006Z,2304
2018-11-12T09:03:21.398Z,2680
2018-11-12T09:04:22.789Z,2748
2018-11-12T09:05:24.180Z,2108
2018-11-12T09:06:25.576Z,2188
2018-11-12T09:07:27.040Z,2744
2018-11-12T09:08:28.363Z,2472
2018-11-12T09:09:29.757Z,2648
2018-11-12T09:10:31.149Z,2548
2018-11-12T09:11:32.541Z,2404
2018-11-12T09:12:33.931Z,2980
2018-11-12T09:13:35.334Z,2352
2018-11-12T09:14:36.717Z,4428
2018-11-12T09:15:38.174Z,4372
2018-11-12T09:16:39.504Z,4328
2018-11-12T09:17:40.895Z,4672
2018-11-12T09:18:42.287Z,4700
2018-11-12T09:19:43.678Z,3952
2018-11-12T09:20:45.077Z,4940
2018-11-12T09:21:46.471Z,3936
2018-11-12T09:22:47.870Z,3352
2018-11-12T09:23:49.257Z,3080
2018-11-12T09:24:50.674Z,4796
2018-11-12T09:25:52.090Z,4672
2018-11-12T09:26:53.487Z,5440
2018-11-12T09:27:54.879Z,5536
2018-11-12T09:28:56.272Z,3920
2018-11-12T09:29:57.669Z,2908
2018-11-12T09:30:59.875Z,3424
2018-11-12T09:32:00.467Z,4444
2018-11-12T09:33:01.861Z,5476
2018-11-12T09:34:03.258Z,3476
2018-11-12T09:35:04.649Z,4988
2018-11-12T09:36:06.055Z,6884
2018-11-12T09:37:07.478Z,3228
2018-11-12T09:38:08.834Z,3056
2018-11-12T09:39:10.206Z,3464
2018-11-12T09:40:11.598Z,6584
2018-11-12T09:41:13.017Z,6048
2018-11-12T09:42:14.386Z,5280
2018-11-12T09:43:15.825Z,5480
2018-11-12T09:44:17.350Z,6056
2018-11-12T09:45:18.679Z,5428
2018-11-12T09:46:20.070Z,6272
2018-11-12T09:47:21.472Z,6368
2018-11-12T09:48:22.855Z,2532
2018-11-12T09:49:24.252Z,6372
2018-11-12T09:50:25.648Z,5444
2018-11-12T09:51:27.036Z,6300
2018-11-12T09:52:28.434Z,5560
2018-11-12T09:53:29.864Z,4616
2018-11-12T09:54:31.330Z,3588
2018-11-12T09:55:32.617Z,3552
2018-11-12T09:56:34.008Z,3580
2018-11-12T09:57:35.404Z,3660
2018-11-12T09:58:36.801Z,3524
2018-11-12T09:59:38.196Z,3648
2018-11-12T10:00:39.659Z,4308
2018-11-12T10:01:41.972Z,4452
2018-11-12T10:02:43.315Z,4360
2018-11-12T10:03:44.888Z,4008
2018-11-12T10:04:46.456Z,5188
2018-11-12T10:05:47.776Z,6352
2018-11-12T10:06:49.379Z,2696
2018-11-12T10:07:51.433Z,2344
2018-11-12T10:08:52.359Z,3552
2018-11-12T10:09:54.302Z,6008
2018-11-12T10:10:56.155Z,6952
2018-11-12T10:11:56.135Z,2508
2018-11-12T10:12:58.047Z,3136
2018-11-12T10:14:00.976Z,3528
2018-11-12T10:15:01.640Z,6612
2018-11-12T10:16:03.099Z,4220
2018-11-12T10:17:04.936Z,5440
2018-11-12T10:18:06.209Z,9560
2018-11-12T10:19:04.854Z,5152
2018-11-12T10:20:06.163Z,9264
2018-11-12T10:21:07.559Z,5872
2018-11-12T10:22:08.953Z,11132
2018-11-12T10:23:10.349Z,19936
2018-11-12T10:24:11.744Z,18016
2018-11-12T10:25:13.144Z,9656
2018-11-12T10:26:14.540Z,15360
2018-11-12T10:27:15.944Z,6708
2018-11-12T10:28:17.332Z,3444
2018-11-12T10:29:18.727Z,7872
2018-11-12T10:30:20.121Z,25824
2018-11-12T10:31:21.514Z,2644
2018-11-12T10:32:22.909Z,3584
2018-11-12T10:33:24.305Z,3952
2018-11-12T10:34:25.703Z,2056
2018-11-12T10:35:27.099Z,5736
2018-11-12T10:36:28.489Z,6484
2018-11-12T10:37:29.884Z,24704
2018-11-12T10:38:31.280Z,17984
2018-11-12T10:39:32.676Z,2324
2018-11-12T10:40:34.070Z,13344
2018-11-12T10:41:35.468Z,13080
2018-11-12T10:42:36.871Z,16928
2018-11-12T10:43:38.265Z,9324
2018-11-12T10:44:39.656Z,1980
2018-11-12T10:45:41.050Z,2000
2018-11-12T10:46:42.448Z,7992
2018-11-12T10:47:43.888Z,2248
2018-11-12T10:48:45.244Z,2040
2018-11-12T10:49:46.637Z,1916
2018-11-12T10:50:56.204Z,1772
2018-11-12T10:51:49.426Z,35072
2018-11-12T10:52:50.832Z,2776
2018-11-12T10:53:52.261Z,1512
2018-11-12T10:55:04.900Z,1792
2018-11-12T10:55:55.447Z,1972
2018-11-12T10:56:56.734Z,1808
2018-11-12T10:57:58.129Z,2008
2018-11-12T10:58:59.522Z,2236
2018-11-12T11:00:00.929Z,2192
2018-11-12T11:01:02.324Z,7612
2018-11-12T11:02:03.719Z,2740
2018-11-12T11:03:05.114Z,5004
2018-11-12T11:04:06.510Z,3232
2018-11-12T11:05:07.906Z,2864
2018-11-12T11:06:09.397Z,3700
2018-11-12T11:07:10.826Z,5192
2018-11-12T11:08:12.284Z,6992
2018-11-12T11:09:13.616Z,5620
2018-11-12T11:10:15.011Z,4952
2018-11-12T11:11:16.408Z,4208
2018-11-12T11:12:17.801Z,4980
2018-11-12T11:13:19.196Z,5500
2018-11-12T11:14:20.591Z,5168
2018-11-12T11:15:22.045Z,4560
2018-11-12T11:16:23.380Z,2836
2018-11-12T11:17:24.777Z,2852
2018-11-12T11:18:26.174Z,4724
2018-11-12T11:19:27.580Z,5072
2018-11-12T11:20:28.960Z,5756
2018-11-12T11:21:30.359Z,3860
2018-11-12T11:22:31.754Z,2664
2018-11-12T11:23:33.151Z,4464
2018-11-12T11:24:34.545Z,3736
2018-11-12T11:25:35.960Z,6796
2018-11-12T11:26:37.347Z,4480
2018-11-12T11:27:38.723Z,8292
2018-11-12T11:28:40.245Z,2792
2018-11-12T11:29:41.620Z,3524
2018-11-12T11:30:43.018Z,8624
2018-11-12T11:31:44.436Z,4624
2018-11-12T11:32:45.809Z,6872
2018-11-12T11:33:47.205Z,5616
2018-11-12T11:34:48.608Z,5624
2018-11-12T11:35:50.009Z,4024
2018-11-12T11:36:51.409Z,3080
2018-11-12T11:37:52.828Z,2380
2018-11-12T11:38:54.197Z,2588
2018-11-12T11:39:55.599Z,2976
2018-11-12T11:40:57.011Z,2204
2018-11-12T11:41:58.399Z,1568
2018-11-12T11:42:59.793Z,1396
2018-11-12T11:44:01.264Z,1372
2018-11-12T11:45:02.585Z,1584
2018-11-12T11:46:03.995Z,1552
2018-11-12T11:47:05.379Z,1468
2018-11-12T11:48:06.851Z,1332
2018-11-12T11:49:08.166Z,1264
2018-11-12T11:50:09.627Z,1780
2018-11-12T11:51:10.954Z,2184
2018-11-12T11:52:12.348Z,2232
2018-11-12T11:53:13.745Z,3032
2018-11-12T11:54:15.142Z,3180
2018-11-12T11:55:16.545Z,2820
2018-11-12T11:56:17.977Z,3348
2018-11-12T11:57:19.577Z,4364
2018-11-12T11:58:20.914Z,3924
2018-11-12T11:59:22.314Z,2640
2018-11-12T12:00:23.703Z,1736
2018-11-12T12:01:25.096Z,1560
2018-11-12T12:02:26.558Z,1524
2018-11-12T12:03:27.882Z,1844
2018-11-12T12:04:29.277Z,2496
2018-11-12T12:05:30.676Z,3152
2018-11-12T12:06:32.068Z,3600
2018-11-12T12:07:33.463Z,3600
2018-11-12T12:08:34.862Z,6220
2018-11-12T12:09:36.253Z,4676
2018-11-12T12:10:37.646Z,3588
2018-11-12T12:11:39.039Z,2472
2018-11-12T12:12:40.432Z,2012
2018-11-12T12:13:41.827Z,1832
2018-11-12T12:14:43.219Z,1368
2018-11-12T12:15:44.609Z,944
2018-11-12T12:16:46.001Z,804
2018-11-12T12:17:47.392Z,972
2018-11-12T12:18:48.784Z,1240
2018-11-12T12:19:50.217Z,1428
2018-11-12T12:20:51.575Z,1616
2018-11-12T12:21:52.997Z,1440
2018-11-12T12:22:54.362Z,1048
2018-11-12T12:23:55.755Z,948
2018-11-12T12:24:57.203Z,1116
2018-11-12T12:25:58.579Z,876
2018-11-12T12:26:59.938Z,764
2018-11-12T12:28:01.331Z,592
2018-11-12T12:29:02.724Z,328
2018-11-12T12:30:04.121Z,348
2018-11-12T12:31:05.512Z,368
2018-11-12T12:32:06.903Z,444
2018-11-12T12:33:08.294Z,504
2018-11-12T12:34:09.779Z,560
2018-11-12T12:35:11.083Z,524
2018-11-12T12:36:12.579Z,716
2018-11-12T12:37:13.873Z,872
2018-11-12T12:38:15.315Z,612
2018-11-12T12:39:16.708Z,436
2018-11-12T12:40:18.098Z,528
2018-11-12T12:41:19.500Z,892
2018-11-12T12:42:20.892Z,1472
2018-11-12T12:43:22.302Z,1260
2018-11-12T12:44:23.734Z,952
2018-11-12T12:45:25.219Z,700
2018-11-12T12:46:26.480Z,476
2018-11-12T12:47:27.912Z,604
2018-11-12T12:48:29.359Z,740
2018-11-12T12:49:30.758Z,636
2018-11-12T12:50:32.148Z,448
2018-11-12T12:51:33.573Z,384
2018-11-12T12:52:34.934Z,336
2018-11-12T12:53:36.328Z,332
2018-11-12T12:54:37.719Z,236
2018-11-12T12:55:39.189Z,212
2018-11-12T12:56:40.508Z,364
2018-11-12T12:57:41.901Z,648
2018-11-12T12:58:43.301Z,756
2018-11-12T12:59:44.761Z,508
2018-11-12T13:00:46.081Z,516
2018-11-12T13:01:47.616Z,452
2018-11-12T13:02:48.875Z,612
2018-11-12T13:03:50.306Z,604
2018-11-12T13:04:53.683Z,472
2018-11-12T13:05:53.052Z,536
2018-11-12T13:06:54.441Z,524
2018-11-12T13:07:55.832Z,412
2018-11-12T13:08:57.225Z,380
2018-11-12T13:09:58.629Z,380
2018-11-12T13:11:00.013Z,396
2018-11-12T13:12:01.402Z,380
2018-11-12T13:13:02.801Z,440
2018-11-12T13:14:04.260Z,444
2018-11-12T13:15:05.613Z,352
2018-11-12T13:16:06.971Z,500
2018-11-12T13:17:08.365Z,620
2018-11-12T13:18:09.755Z,548
2018-11-12T13:19:11.149Z,488
2018-11-12T13:20:12.550Z,636
2018-11-12T13:21:13.997Z,632
2018-11-12T13:22:15.329Z,604
2018-11-12T13:23:16.718Z,596
2018-11-12T13:24:18.112Z,512
2018-11-12T13:25:19.504Z,572
2018-11-12T13:26:20.903Z,532
2018-11-12T13:27:22.292Z,604
2018-11-12T13:28:23.684Z,596
2018-11-12T13:29:25.075Z,572
2018-11-12T13:30:26.471Z,612
2018-11-12T13:31:27.863Z,732
2018-11-12T13:32:29.255Z,724
2018-11-12T13:33:30.653Z,720
2018-11-12T13:34:32.047Z,644
2018-11-12T13:35:33.436Z,688
2018-11-12T13:36:34.827Z,684
2018-11-12T13:37:36.217Z,720
2018-11-12T13:38:37.675Z,756
2018-11-12T13:39:39.098Z,824
2018-11-12T13:40:40.492Z,876
2018-11-12T13:41:41.886Z,952
2018-11-12T13:42:43.278Z,868
2018-11-12T13:43:44.669Z,768
2018-11-12T13:44:46.063Z,704
2018-11-12T13:45:47.452Z,716
2018-11-12T13:46:48.842Z,664
2018-11-12T13:47:50.239Z,664
2018-11-12T13:48:51.636Z,648
2018-11-12T13:49:53.027Z,700
2018-11-12T13:50:54.417Z,724
2018-11-12T13:51:55.809Z,740
2018-11-12T13:52:57.246Z,724
2018-11-12T13:53:58.594Z,636
2018-11-12T13:54:59.986Z,548
2018-11-12T13:56:01.383Z,540
2018-11-12T13:57:02.781Z,528
2018-11-12T13:58:04.169Z,564
2018-11-12T13:59:05.565Z,524
2018-11-12T14:00:06.961Z,500
2018-11-12T14:01:08.352Z,460
2018-11-12T14:02:09.745Z,444
2018-11-12T14:03:11.137Z,436
2018-11-12T14:04:12.531Z,408
2018-11-12T14:05:13.931Z,396
2018-11-12T14:06:15.311Z,412
2018-11-12T14:07:16.706Z,416
2018-11-12T14:08:18.096Z,412
2018-11-12T14:09:19.490Z,416
2018-11-12T14:10:20.881Z,460
2018-11-12T14:11:22.273Z,484
2018-11-12T14:12:23.665Z,476
2018-11-12T14:13:25.052Z,452
2018-11-12T14:14:26.444Z,428
2018-11-12T14:15:27.838Z,396
2018-11-12T14:16:29.229Z,376
2018-11-12T14:17:30.623Z,360
2018-11-12T14:18:32.015Z,348
2018-11-12T14:19:33.412Z,336
2018-11-12T14:20:34.895Z,336
2018-11-12T14:21:36.358Z,336
2018-11-12T14:22:37.660Z,328
2018-11-12T14:23:39.178Z,336